sensor_id;sensor_type;location;lat;lon;timestamp;temperature;humidity
20182;DHT22;10250;50.756;6.172;2023-03-30T00:01:26;13.20;1.00
20182;DHT22;10250;50.756;6.172;2023-03-30T00:03:27;13.20;1.00
20182;DHT22;10250;50.756;6.172;2023-03-30T00:05:30;13.20;1.00
20182;DHT22;10250;50.756;6.172;2023-03-30T00:07:31;13.20;1.00
20182;DHT22;10250;50.756;6.172;2023-03-30T00:09:31;13.20;1.00
20182;DHT22;10250;50.756;6.172;2023-03-30T00:11:32;13.20;1.00
20182;DHT22;10250;50.756;6.172;2023-03-30T00:13:34;13.30;1.00
20182;DHT22;10250;50.756;6.172;2023-03-30T00:15:35;13.30;1.00
20182;DHT22;10250;50.756;6.172;2023-03-30T00:17:36;13.30;1.00
20182;DHT22;10250;50.756;6.172;2023-03-30T00:19:37;13.30;1.00
20182;DHT22;10250;50.756;6.172;2023-03-30T00:21:38;13.30;1.00
20182;DHT22;10250;50.756;6.172;2023-03-30T00:23:38;13.30;1.00
20182;DHT22;10250;50.756;6.172;2023-03-30T00:25:41;13.30;1.00
20182;DHT22;10250;50.756;6.172;2023-03-30T00:27:42;13.30;1.00
20182;DHT22;10250;50.756;6.172;2023-03-30T00:29:43;13.30;1.00
20182;DHT22;10250;50.756;6.172;2023-03-30T00:31:44;13.40;1.00
20182;DHT22;10250;50.756;6.172;2023-03-30T00:33:44;13.30;1.00
20182;DHT22;10250;50.756;6.172;2023-03-30T00:35:56;13.30;1.00
20182;DHT22;10250;50.756;6.172;2023-03-30T00:37:58;13.30;1.00
20182;DHT22;10250;50.756;6.172;2023-03-30T00:40:07;13.30;1.00
20182;DHT22;10250;50.756;6.172;2023-03-30T00:42:13;13.30;1.00
20182;DHT22;10250;50.756;6.172;2023-03-30T00:46:53;13.30;1.00
20182;DHT22;10250;50.756;6.172;2023-03-30T00:48:55;13.40;1.00
20182;DHT22;10250;50.756;6.172;2023-03-30T00:51:06;13.40;1.00
20182;DHT22;10250;50.756;6.172;2023-03-30T00:53:19;13.40;1.00
20182;DHT22;10250;50.756;6.172;2023-03-30T00:55:22;13.40;1.00
20182;DHT22;10250;50.756;6.172;2023-03-30T00:57:24;13.40;1.00
20182;DHT22;10250;50.756;6.172;2023-03-30T00:59:25;13.40;1.00
20182;DHT22;10250;50.756;6.172;2023-03-30T01:01:26;13.40;1.00
20182;DHT22;10250;50.756;6.172;2023-03-30T01:03:31;13.40;1.00
20182;DHT22;10250;50.756;6.172;2023-03-30T01:05:32;13.40;1.00
20182;DHT22;10250;50.756;6.172;2023-03-30T01:07:34;13.40;1.00
20182;DHT22;10250;50.756;6.172;2023-03-30T01:09:37;13.50;1.00
20182;DHT22;10250;50.756;6.172;2023-03-30T01:11:38;13.50;1.00
20182;DHT22;10250;50.756;6.172;2023-03-30T01:13:42;13.50;1.00
20182;DHT22;10250;50.756;6.172;2023-03-30T01:18:29;13.60;1.00
20182;DHT22;10250;50.756;6.172;2023-03-30T01:23:19;13.50;1.00
20182;DHT22;10250;50.756;6.172;2023-03-30T01:41:58;13.40;1.00
20182;DHT22;10250;50.756;6.172;2023-03-30T01:44:19;13.40;1.00
20182;DHT22;10250;50.756;6.172;2023-03-30T01:46:29;13.40;1.00
20182;DHT22;10250;50.756;6.172;2023-03-30T01:48:41;13.50;1.00
20182;DHT22;10250;50.756;6.172;2023-03-30T01:51:05;13.40;1.00
20182;DHT22;10250;50.756;6.172;2023-03-30T02:00:06;13.50;1.00
20182;DHT22;10250;50.756;6.172;2023-03-30T02:02:16;13.40;1.00
20182;DHT22;10250;50.756;6.172;2023-03-30T02:04:20;13.40;1.00
20182;DHT22;10250;50.756;6.172;2023-03-30T02:08:32;13.40;1.00
20182;DHT22;10250;50.756;6.172;2023-03-30T02:10:34;13.40;1.00
20182;DHT22;10250;50.756;6.172;2023-03-30T02:12:36;13.40;1.00
20182;DHT22;10250;50.756;6.172;2023-03-30T02:14:38;13.50;1.00
20182;DHT22;10250;50.756;6.172;2023-03-30T02:16:45;13.40;1.00
20182;DHT22;10250;50.756;6.172;2023-03-30T02:18:45;13.40;1.00
20182;DHT22;10250;50.756;6.172;2023-03-30T02:20:47;13.40;1.00
20182;DHT22;10250;50.756;6.172;2023-03-30T02:22:48;13.40;1.00
20182;DHT22;10250;50.756;6.172;2023-03-30T02:24:52;13.30;1.00
20182;DHT22;10250;50.756;6.172;2023-03-30T02:26:53;13.30;1.00
20182;DHT22;10250;50.756;6.172;2023-03-30T02:28:55;13.30;1.00
20182;DHT22;10250;50.756;6.172;2023-03-30T02:30:55;13.20;1.00
20182;DHT22;10250;50.756;6.172;2023-03-30T02:32:58;13.20;1.00
20182;DHT22;10250;50.756;6.172;2023-03-30T02:35:08;13.20;1.00
20182;DHT22;10250;50.756;6.172;2023-03-30T02:42:21;13.20;1.00
20182;DHT22;10250;50.756;6.172;2023-03-30T02:51:37;13.00;1.00
20182;DHT22;10250;50.756;6.172;2023-03-30T02:53:46;13.00;1.00
20182;DHT22;10250;50.756;6.172;2023-03-30T02:55:50;13.00;1.00
20182;DHT22;10250;50.756;6.172;2023-03-30T02:58:30;13.00;1.00
20182;DHT22;10250;50.756;6.172;2023-03-30T03:00:55;13.00;1.00
20182;DHT22;10250;50.756;6.172;2023-03-30T03:03:02;13.00;1.00
20182;DHT22;10250;50.756;6.172;2023-03-30T03:05:07;13.00;1.00
20182;DHT22;10250;50.756;6.172;2023-03-30T03:07:10;13.00;1.00
20182;DHT22;10250;50.756;6.172;2023-03-30T03:09:10;13.00;1.00
20182;DHT22;10250;50.756;6.172;2023-03-30T03:11:11;13.00;1.00
20182;DHT22;10250;50.756;6.172;2023-03-30T03:13:11;13.00;1.00
20182;DHT22;10250;50.756;6.172;2023-03-30T03:15:14;13.00;1.00
20182;DHT22;10250;50.756;6.172;2023-03-30T03:17:15;13.10;1.00
20182;DHT22;10250;50.756;6.172;2023-03-30T03:19:21;13.00;1.00
20182;DHT22;10250;50.756;6.172;2023-03-30T03:21:22;13.10;1.00
20182;DHT22;10250;50.756;6.172;2023-03-30T03:23:23;13.00;1.00
20182;DHT22;10250;50.756;6.172;2023-03-30T03:25:23;13.00;1.00
20182;DHT22;10250;50.756;6.172;2023-03-30T03:27:24;13.00;1.00
20182;DHT22;10250;50.756;6.172;2023-03-30T03:29:25;13.00;1.00
20182;DHT22;10250;50.756;6.172;2023-03-30T03:31:26;13.00;1.00
20182;DHT22;10250;50.756;6.172;2023-03-30T03:33:27;12.90;1.00
20182;DHT22;10250;50.756;6.172;2023-03-30T03:35:28;12.90;1.00
20182;DHT22;10250;50.756;6.172;2023-03-30T03:37:29;12.90;1.00
20182;DHT22;10250;50.756;6.172;2023-03-30T03:39:29;12.90;1.00
20182;DHT22;10250;50.756;6.172;2023-03-30T03:41:30;12.90;1.00
20182;DHT22;10250;50.756;6.172;2023-03-30T03:43:31;12.90;1.00
20182;DHT22;10250;50.756;6.172;2023-03-30T03:45:33;12.90;1.00
20182;DHT22;10250;50.756;6.172;2023-03-30T03:47:34;13.00;1.00
20182;DHT22;10250;50.756;6.172;2023-03-30T03:49:34;12.90;1.00
20182;DHT22;10250;50.756;6.172;2023-03-30T03:51:35;12.90;1.00
20182;DHT22;10250;50.756;6.172;2023-03-30T03:53:36;13.00;1.00
20182;DHT22;10250;50.756;6.172;2023-03-30T03:55:37;12.90;1.00
20182;DHT22;10250;50.756;6.172;2023-03-30T03:57:38;12.90;1.00
20182;DHT22;10250;50.756;6.172;2023-03-30T03:59:38;12.90;1.00
20182;DHT22;10250;50.756;6.172;2023-03-30T04:01:39;12.90;1.00
20182;DHT22;10250;50.756;6.172;2023-03-30T04:03:39;12.90;1.00
20182;DHT22;10250;50.756;6.172;2023-03-30T04:05:41;12.90;1.00
20182;DHT22;10250;50.756;6.172;2023-03-30T04:07:41;12.90;1.00
20182;DHT22;10250;50.756;6.172;2023-03-30T04:09:45;12.90;1.00
20182;DHT22;10250;50.756;6.172;2023-03-30T04:11:46;12.90;1.00
20182;DHT22;10250;50.756;6.172;2023-03-30T04:13:47;12.90;1.00
20182;DHT22;10250;50.756;6.172;2023-03-30T04:15:47;12.90;1.00
20182;DHT22;10250;50.756;6.172;2023-03-30T04:17:48;13.00;1.00
20182;DHT22;10250;50.756;6.172;2023-03-30T04:19:49;13.00;1.00
20182;DHT22;10250;50.756;6.172;2023-03-30T04:21:58;13.00;1.00
20182;DHT22;10250;50.756;6.172;2023-03-30T04:23:59;13.00;1.00
20182;DHT22;10250;50.756;6.172;2023-03-30T04:26:00;13.00;1.00
20182;DHT22;10250;50.756;6.172;2023-03-30T04:28:01;13.00;1.00
20182;DHT22;10250;50.756;6.172;2023-03-30T04:30:04;13.00;1.00
20182;DHT22;10250;50.756;6.172;2023-03-30T04:32:05;13.00;1.00
20182;DHT22;10250;50.756;6.172;2023-03-30T04:34:06;13.00;1.00
20182;DHT22;10250;50.756;6.172;2023-03-30T04:36:08;13.00;1.00
20182;DHT22;10250;50.756;6.172;2023-03-30T04:38:09;13.00;1.00
20182;DHT22;10250;50.756;6.172;2023-03-30T04:40:10;13.00;1.00
20182;DHT22;10250;50.756;6.172;2023-03-30T04:42:12;12.90;1.00
20182;DHT22;10250;50.756;6.172;2023-03-30T04:44:13;13.00;1.00
20182;DHT22;10250;50.756;6.172;2023-03-30T04:46:14;13.00;1.00
20182;DHT22;10250;50.756;6.172;2023-03-30T04:48:15;13.00;1.00
20182;DHT22;10250;50.756;6.172;2023-03-30T04:50:16;13.00;1.00
20182;DHT22;10250;50.756;6.172;2023-03-30T04:52:17;13.00;1.00
20182;DHT22;10250;50.756;6.172;2023-03-30T04:54:17;12.90;1.00
20182;DHT22;10250;50.756;6.172;2023-03-30T04:56:18;12.90;1.00
20182;DHT22;10250;50.756;6.172;2023-03-30T04:58:19;13.00;1.00
20182;DHT22;10250;50.756;6.172;2023-03-30T05:00:20;13.00;1.00
20182;DHT22;10250;50.756;6.172;2023-03-30T05:02:20;12.90;1.00
20182;DHT22;10250;50.756;6.172;2023-03-30T05:04:21;13.00;1.00
20182;DHT22;10250;50.756;6.172;2023-03-30T05:06:22;13.00;1.00
20182;DHT22;10250;50.756;6.172;2023-03-30T05:08:22;13.00;1.00
20182;DHT22;10250;50.756;6.172;2023-03-30T05:10:23;12.90;1.00
20182;DHT22;10250;50.756;6.172;2023-03-30T05:12:24;12.90;1.00
20182;DHT22;10250;50.756;6.172;2023-03-30T05:14:24;13.00;1.00
20182;DHT22;10250;50.756;6.172;2023-03-30T05:16:25;12.90;1.00
20182;DHT22;10250;50.756;6.172;2023-03-30T05:18:26;12.90;1.00
20182;DHT22;10250;50.756;6.172;2023-03-30T05:20:26;12.90;1.00
20182;DHT22;10250;50.756;6.172;2023-03-30T05:22:28;12.90;1.00
20182;DHT22;10250;50.756;6.172;2023-03-30T05:24:28;12.90;1.00
20182;DHT22;10250;50.756;6.172;2023-03-30T05:26:29;12.80;1.00
20182;DHT22;10250;50.756;6.172;2023-03-30T05:28:29;12.90;1.00
20182;DHT22;10250;50.756;6.172;2023-03-30T05:30:30;12.80;1.00
20182;DHT22;10250;50.756;6.172;2023-03-30T05:32:31;12.80;1.00
20182;DHT22;10250;50.756;6.172;2023-03-30T05:34:32;12.80;1.00
20182;DHT22;10250;50.756;6.172;2023-03-30T05:36:32;12.80;1.00
20182;DHT22;10250;50.756;6.172;2023-03-30T05:38:34;12.90;1.00
20182;DHT22;10250;50.756;6.172;2023-03-30T05:40:35;12.90;1.00
20182;DHT22;10250;50.756;6.172;2023-03-30T05:42:36;12.90;1.00
20182;DHT22;10250;50.756;6.172;2023-03-30T05:44:37;12.90;1.00
20182;DHT22;10250;50.756;6.172;2023-03-30T05:46:37;12.80;1.00
20182;DHT22;10250;50.756;6.172;2023-03-30T05:48:38;12.90;1.00
20182;DHT22;10250;50.756;6.172;2023-03-30T05:50:39;12.90;1.00
20182;DHT22;10250;50.756;6.172;2023-03-30T05:52:40;12.90;20.00
20182;DHT22;10250;50.756;6.172;2023-03-30T05:54:40;12.80;29.50
20182;DHT22;10250;50.756;6.172;2023-03-30T05:56:41;12.90;43.00
20182;DHT22;10250;50.756;6.172;2023-03-30T05:58:41;12.80;41.30
20182;DHT22;10250;50.756;6.172;2023-03-30T06:00:43;12.80;38.90
20182;DHT22;10250;50.756;6.172;2023-03-30T06:02:44;12.80;53.10
20182;DHT22;10250;50.756;6.172;2023-03-30T06:04:44;12.80;63.70
20182;DHT22;10250;50.756;6.172;2023-03-30T06:06:45;12.80;56.70
20182;DHT22;10250;50.756;6.172;2023-03-30T06:08:46;12.70;99.90
20182;DHT22;10250;50.756;6.172;2023-03-30T06:10:53;12.80;97.60
20182;DHT22;10250;50.756;6.172;2023-03-30T06:12:54;12.80;99.90
20182;DHT22;10250;50.756;6.172;2023-03-30T06:14:55;12.80;99.90
20182;DHT22;10250;50.756;6.172;2023-03-30T06:16:55;12.70;99.90
20182;DHT22;10250;50.756;6.172;2023-03-30T06:18:56;12.70;99.90
20182;DHT22;10250;50.756;6.172;2023-03-30T06:20:57;12.70;99.90
20182;DHT22;10250;50.756;6.172;2023-03-30T06:22:57;12.80;99.90
20182;DHT22;10250;50.756;6.172;2023-03-30T06:24:58;12.80;99.90
20182;DHT22;10250;50.756;6.172;2023-03-30T06:26:58;12.90;99.90
20182;DHT22;10250;50.756;6.172;2023-03-30T06:29:00;13.00;99.90
20182;DHT22;10250;50.756;6.172;2023-03-30T06:31:06;13.00;99.90
20182;DHT22;10250;50.756;6.172;2023-03-30T06:33:07;13.10;92.80
20182;DHT22;10250;50.756;6.172;2023-03-30T06:35:08;13.00;99.90
20182;DHT22;10250;50.756;6.172;2023-03-30T06:37:09;13.00;86.40
20182;DHT22;10250;50.756;6.172;2023-03-30T06:39:10;13.00;98.60
20182;DHT22;10250;50.756;6.172;2023-03-30T06:41:11;13.00;99.90
20182;DHT22;10250;50.756;6.172;2023-03-30T06:43:19;13.00;99.90
20182;DHT22;10250;50.756;6.172;2023-03-30T06:45:20;13.00;99.90
20182;DHT22;10250;50.756;6.172;2023-03-30T06:47:20;13.00;72.10
20182;DHT22;10250;50.756;6.172;2023-03-30T06:49:22;13.00;99.90
20182;DHT22;10250;50.756;6.172;2023-03-30T06:51:22;13.00;99.90
20182;DHT22;10250;50.756;6.172;2023-03-30T06:53:23;12.90;99.90
20182;DHT22;10250;50.756;6.172;2023-03-30T06:55:24;13.00;99.90
20182;DHT22;10250;50.756;6.172;2023-03-30T06:57:25;13.00;99.90
20182;DHT22;10250;50.756;6.172;2023-03-30T06:59:25;13.10;99.90
20182;DHT22;10250;50.756;6.172;2023-03-30T07:01:26;13.00;99.90
20182;DHT22;10250;50.756;6.172;2023-03-30T07:03:27;13.10;99.90
20182;DHT22;10250;50.756;6.172;2023-03-30T07:05:29;13.10;99.90
20182;DHT22;10250;50.756;6.172;2023-03-30T07:07:29;13.00;99.90
20182;DHT22;10250;50.756;6.172;2023-03-30T07:09:30;13.00;99.90
20182;DHT22;10250;50.756;6.172;2023-03-30T07:11:31;13.00;99.90
20182;DHT22;10250;50.756;6.172;2023-03-30T07:13:32;13.00;99.90
20182;DHT22;10250;50.756;6.172;2023-03-30T07:15:33;13.00;99.90
20182;DHT22;10250;50.756;6.172;2023-03-30T07:17:35;13.00;99.90
20182;DHT22;10250;50.756;6.172;2023-03-30T07:19:36;13.00;99.90
20182;DHT22;10250;50.756;6.172;2023-03-30T07:21:36;13.00;99.90
20182;DHT22;10250;50.756;6.172;2023-03-30T07:23:37;13.00;99.90
20182;DHT22;10250;50.756;6.172;2023-03-30T07:25:39;13.00;99.90
20182;DHT22;10250;50.756;6.172;2023-03-30T07:27:40;13.00;99.90
20182;DHT22;10250;50.756;6.172;2023-03-30T07:29:41;13.00;99.90
20182;DHT22;10250;50.756;6.172;2023-03-30T07:31:41;13.00;99.90
20182;DHT22;10250;50.756;6.172;2023-03-30T07:33:42;13.00;99.90
20182;DHT22;10250;50.756;6.172;2023-03-30T07:35:44;13.00;99.90
20182;DHT22;10250;50.756;6.172;2023-03-30T07:37:45;13.00;99.90
20182;DHT22;10250;50.756;6.172;2023-03-30T07:39:46;12.90;99.90
20182;DHT22;10250;50.756;6.172;2023-03-30T07:41:47;12.90;99.90
20182;DHT22;10250;50.756;6.172;2023-03-30T07:43:47;12.90;99.90
20182;DHT22;10250;50.756;6.172;2023-03-30T07:45:48;12.90;99.90
20182;DHT22;10250;50.756;6.172;2023-03-30T07:47:48;12.90;99.90
20182;DHT22;10250;50.756;6.172;2023-03-30T07:49:49;12.90;99.90
20182;DHT22;10250;50.756;6.172;2023-03-30T07:51:51;13.00;99.90
20182;DHT22;10250;50.756;6.172;2023-03-30T07:53:52;13.20;99.90
20182;DHT22;10250;50.756;6.172;2023-03-30T07:55:53;13.30;99.90
20182;DHT22;10250;50.756;6.172;2023-03-30T07:57:57;13.30;99.90
20182;DHT22;10250;50.756;6.172;2023-03-30T07:59:58;13.30;99.90
20182;DHT22;10250;50.756;6.172;2023-03-30T08:01:58;13.30;99.90
20182;DHT22;10250;50.756;6.172;2023-03-30T08:04:00;13.30;99.90
20182;DHT22;10250;50.756;6.172;2023-03-30T08:06:01;13.30;99.90
20182;DHT22;10250;50.756;6.172;2023-03-30T08:08:05;13.40;99.90
20182;DHT22;10250;50.756;6.172;2023-03-30T08:10:07;13.40;99.90
20182;DHT22;10250;50.756;6.172;2023-03-30T08:12:08;13.50;99.90
20182;DHT22;10250;50.756;6.172;2023-03-30T08:14:08;13.40;99.90
20182;DHT22;10250;50.756;6.172;2023-03-30T08:16:10;13.40;99.90
20182;DHT22;10250;50.756;6.172;2023-03-30T08:18:11;13.40;1.00
20182;DHT22;10250;50.756;6.172;2023-03-30T08:20:13;13.40;1.00
20182;DHT22;10250;50.756;6.172;2023-03-30T08:22:15;13.40;1.00
20182;DHT22;10250;50.756;6.172;2023-03-30T08:24:16;13.30;99.90
20182;DHT22;10250;50.756;6.172;2023-03-30T08:26:17;13.30;99.90
20182;DHT22;10250;50.756;6.172;2023-03-30T08:28:18;13.30;99.90
20182;DHT22;10250;50.756;6.172;2023-03-30T08:30:20;13.30;99.90
20182;DHT22;10250;50.756;6.172;2023-03-30T08:32:21;13.20;99.90
20182;DHT22;10250;50.756;6.172;2023-03-30T08:34:22;13.20;99.90
20182;DHT22;10250;50.756;6.172;2023-03-30T08:36:22;13.20;99.90
20182;DHT22;10250;50.756;6.172;2023-03-30T08:38:23;13.30;99.90
20182;DHT22;10250;50.756;6.172;2023-03-30T08:40:24;13.30;99.90
20182;DHT22;10250;50.756;6.172;2023-03-30T08:44:53;13.40;99.90
20182;DHT22;10250;50.756;6.172;2023-03-30T08:46:55;13.50;99.90
20182;DHT22;10250;50.756;6.172;2023-03-30T08:48:58;13.70;99.90
20182;DHT22;10250;50.756;6.172;2023-03-30T08:51:07;13.90;99.90
20182;DHT22;10250;50.756;6.172;2023-03-30T08:53:11;14.10;95.50
20182;DHT22;10250;50.756;6.172;2023-03-30T08:55:27;14.10;26.00
20182;DHT22;10250;50.756;6.172;2023-03-30T08:57:51;14.00;17.20
20182;DHT22;10250;50.756;6.172;2023-03-30T09:02:33;13.90;6.70
20182;DHT22;10250;50.756;6.172;2023-03-30T09:07:06;13.50;99.90
20182;DHT22;10250;50.756;6.172;2023-03-30T09:09:12;13.20;1.00
20182;DHT22;10250;50.756;6.172;2023-03-30T09:11:18;12.80;1.00
20182;DHT22;10250;50.756;6.172;2023-03-30T09:13:25;12.50;1.00
20182;DHT22;10250;50.756;6.172;2023-03-30T09:15:40;12.20;99.90
20182;DHT22;10250;50.756;6.172;2023-03-30T09:17:56;12.10;1.00
20182;DHT22;10250;50.756;6.172;2023-03-30T09:20:18;12.10;1.00
20182;DHT22;10250;50.756;6.172;2023-03-30T09:22:20;12.00;26.30
20182;DHT22;10250;50.756;6.172;2023-03-30T09:24:25;11.80;99.90
20182;DHT22;10250;50.756;6.172;2023-03-30T09:26:34;11.80;99.90
20182;DHT22;10250;50.756;6.172;2023-03-30T09:31:40;11.60;99.90
20182;DHT22;10250;50.756;6.172;2023-03-30T09:33:56;11.50;1.00
20182;DHT22;10250;50.756;6.172;2023-03-30T09:36:09;11.50;1.00
20182;DHT22;10250;50.756;6.172;2023-03-30T09:38:11;11.40;99.90
20182;DHT22;10250;50.756;6.172;2023-03-30T09:42:51;11.50;1.00
20182;DHT22;10250;50.756;6.172;2023-03-30T09:45:10;11.40;99.90
20182;DHT22;10250;50.756;6.172;2023-03-30T09:49:18;11.50;1.00
20182;DHT22;10250;50.756;6.172;2023-03-30T09:51:27;11.50;1.00
20182;DHT22;10250;50.756;6.172;2023-03-30T09:53:33;11.40;99.90
20182;DHT22;10250;50.756;6.172;2023-03-30T09:55:35;11.40;1.00
20182;DHT22;10250;50.756;6.172;2023-03-30T09:57:37;11.50;99.90
20182;DHT22;10250;50.756;6.172;2023-03-30T09:59:37;11.70;99.90
20182;DHT22;10250;50.756;6.172;2023-03-30T10:01:38;11.70;1.00
20182;DHT22;10250;50.756;6.172;2023-03-30T10:03:43;11.80;99.90
20182;DHT22;10250;50.756;6.172;2023-03-30T10:05:44;11.90;99.90
20182;DHT22;10250;50.756;6.172;2023-03-30T10:07:51;12.00;99.90
20182;DHT22;10250;50.756;6.172;2023-03-30T10:09:53;11.90;1.00
20182;DHT22;10250;50.756;6.172;2023-03-30T10:11:54;11.90;1.00
20182;DHT22;10250;50.756;6.172;2023-03-30T10:13:56;12.00;1.00
20182;DHT22;10250;50.756;6.172;2023-03-30T10:16:09;11.90;3.00
20182;DHT22;10250;50.756;6.172;2023-03-30T10:18:26;12.00;90.80
20182;DHT22;10250;50.756;6.172;2023-03-30T10:20:28;12.00;99.90
20182;DHT22;10250;50.756;6.172;2023-03-30T10:22:36;12.10;99.90
20182;DHT22;10250;50.756;6.172;2023-03-30T10:24:55;12.20;1.00
20182;DHT22;10250;50.756;6.172;2023-03-30T10:27:01;12.20;99.90
20182;DHT22;10250;50.756;6.172;2023-03-30T10:29:04;12.20;1.00
20182;DHT22;10250;50.756;6.172;2023-03-30T10:31:13;12.30;3.50
20182;DHT22;10250;50.756;6.172;2023-03-30T10:33:15;12.40;1.00
20182;DHT22;10250;50.756;6.172;2023-03-30T10:35:20;12.50;99.90
20182;DHT22;10250;50.756;6.172;2023-03-30T10:39:33;12.50;99.90
20182;DHT22;10250;50.756;6.172;2023-03-30T10:41:34;12.50;1.00
20182;DHT22;10250;50.756;6.172;2023-03-30T10:43:36;12.40;1.00
20182;DHT22;10250;50.756;6.172;2023-03-30T10:45:57;12.40;1.00
20182;DHT22;10250;50.756;6.172;2023-03-30T10:50:26;12.30;1.00
20182;DHT22;10250;50.756;6.172;2023-03-30T10:57:14;12.30;99.90
20182;DHT22;10250;50.756;6.172;2023-03-30T10:59:36;12.30;1.00
20182;DHT22;10250;50.756;6.172;2023-03-30T11:04:00;12.30;1.00
20182;DHT22;10250;50.756;6.172;2023-03-30T11:06:09;12.30;1.00
20182;DHT22;10250;50.756;6.172;2023-03-30T11:08:16;12.30;99.90
20182;DHT22;10250;50.756;6.172;2023-03-30T11:10:20;12.30;1.00
20182;DHT22;10250;50.756;6.172;2023-03-30T11:12:22;12.30;99.90
20182;DHT22;10250;50.756;6.172;2023-03-30T11:16:43;12.40;1.00
20182;DHT22;10250;50.756;6.172;2023-03-30T11:19:02;12.40;1.00
20182;DHT22;10250;50.756;6.172;2023-03-30T11:21:16;12.40;99.90
20182;DHT22;10250;50.756;6.172;2023-03-30T11:23:42;12.40;1.00
20182;DHT22;10250;50.756;6.172;2023-03-30T11:25:52;12.50;42.70
20182;DHT22;10250;50.756;6.172;2023-03-30T11:30:27;12.60;1.00
20182;DHT22;10250;50.756;6.172;2023-03-30T11:32:56;12.60;1.00
20182;DHT22;10250;50.756;6.172;2023-03-30T11:37:39;12.60;1.00
20182;DHT22;10250;50.756;6.172;2023-03-30T11:39:48;12.70;1.00
20182;DHT22;10250;50.756;6.172;2023-03-30T11:42:01;12.80;1.00
20182;DHT22;10250;50.756;6.172;2023-03-30T11:44:03;12.90;1.00
20182;DHT22;10250;50.756;6.172;2023-03-30T11:55:47;13.10;99.90
20182;DHT22;10250;50.756;6.172;2023-03-30T11:57:59;13.20;99.90
20182;DHT22;10250;50.756;6.172;2023-03-30T12:00:27;13.20;1.00
20182;DHT22;10250;50.756;6.172;2023-03-30T12:07:02;13.30;1.00
20182;DHT22;10250;50.756;6.172;2023-03-30T12:13:40;13.30;1.00
20182;DHT22;10250;50.756;6.172;2023-03-30T12:15:51;13.40;1.00
20182;DHT22;10250;50.756;6.172;2023-03-30T12:20:28;13.40;1.00
20182;DHT22;10250;50.756;6.172;2023-03-30T12:22:37;13.50;1.00
20182;DHT22;10250;50.756;6.172;2023-03-30T12:25:13;13.60;99.90
20182;DHT22;10250;50.756;6.172;2023-03-30T12:27:14;13.60;99.90
20182;DHT22;10250;50.756;6.172;2023-03-30T12:29:16;13.60;99.90
20182;DHT22;10250;50.756;6.172;2023-03-30T12:31:17;13.70;99.90
20182;DHT22;10250;50.756;6.172;2023-03-30T12:37:47;13.80;99.90
20182;DHT22;10250;50.756;6.172;2023-03-30T12:39:52;13.80;99.90
20182;DHT22;10250;50.756;6.172;2023-03-30T12:42:04;13.90;99.90
20182;DHT22;10250;50.756;6.172;2023-03-30T12:49:25;14.00;95.10
20182;DHT22;10250;50.756;6.172;2023-03-30T12:54:12;13.90;82.80
20182;DHT22;10250;50.756;6.172;2023-03-30T13:02:50;13.20;99.90
20182;DHT22;10250;50.756;6.172;2023-03-30T13:04:55;13.00;99.90
20182;DHT22;10250;50.756;6.172;2023-03-30T13:07:01;12.80;1.00
20182;DHT22;10250;50.756;6.172;2023-03-30T13:11:20;12.60;1.00
20182;DHT22;10250;50.756;6.172;2023-03-30T13:13:46;12.60;1.00
20182;DHT22;10250;50.756;6.172;2023-03-30T13:15:51;12.70;1.00
20182;DHT22;10250;50.756;6.172;2023-03-30T13:20:15;12.80;1.00
20182;DHT22;10250;50.756;6.172;2023-03-30T13:22:23;12.70;99.90
20182;DHT22;10250;50.756;6.172;2023-03-30T13:26:41;12.80;1.00
20182;DHT22;10250;50.756;6.172;2023-03-30T13:33:36;12.90;1.00
20182;DHT22;10250;50.756;6.172;2023-03-30T13:38:22;13.00;99.90
20182;DHT22;10250;50.756;6.172;2023-03-30T13:40:40;13.00;1.00
20182;DHT22;10250;50.756;6.172;2023-03-30T13:42:50;13.00;99.90
20182;DHT22;10250;50.756;6.172;2023-03-30T13:49:53;13.20;1.00
20182;DHT22;10250;50.756;6.172;2023-03-30T13:52:08;13.20;99.90
20182;DHT22;10250;50.756;6.172;2023-03-30T13:56:13;13.30;1.00
20182;DHT22;10250;50.756;6.172;2023-03-30T13:58:38;13.30;1.00
20182;DHT22;10250;50.756;6.172;2023-03-30T14:01:01;13.40;1.00
20182;DHT22;10250;50.756;6.172;2023-03-30T14:05:35;13.40;99.90
20182;DHT22;10250;50.756;6.172;2023-03-30T14:07:40;13.30;99.90
20182;DHT22;10250;50.756;6.172;2023-03-30T14:09:43;13.40;1.00
20182;DHT22;10250;50.756;6.172;2023-03-30T14:12:03;13.40;1.00
20182;DHT22;10250;50.756;6.172;2023-03-30T14:14:05;13.50;1.00
20182;DHT22;10250;50.756;6.172;2023-03-30T14:16:06;13.50;1.00
20182;DHT22;10250;50.756;6.172;2023-03-30T14:18:12;13.60;99.90
20182;DHT22;10250;50.756;6.172;2023-03-30T14:22:30;13.80;99.90
20182;DHT22;10250;50.756;6.172;2023-03-30T14:24:33;13.80;99.90
20182;DHT22;10250;50.756;6.172;2023-03-30T14:26:38;13.80;99.90
20182;DHT22;10250;50.756;6.172;2023-03-30T14:28:40;13.80;99.90
20182;DHT22;10250;50.756;6.172;2023-03-30T14:31:00;13.80;99.90
20182;DHT22;10250;50.756;6.172;2023-03-30T14:33:11;13.80;99.90
20182;DHT22;10250;50.756;6.172;2023-03-30T14:35:16;13.80;99.90
20182;DHT22;10250;50.756;6.172;2023-03-30T14:37:22;13.80;99.90
20182;DHT22;10250;50.756;6.172;2023-03-30T14:39:24;13.80;99.90
20182;DHT22;10250;50.756;6.172;2023-03-30T14:41:26;13.70;99.90
20182;DHT22;10250;50.756;6.172;2023-03-30T14:43:30;13.60;99.90
20182;DHT22;10250;50.756;6.172;2023-03-30T14:45:31;13.60;99.90
20182;DHT22;10250;50.756;6.172;2023-03-30T14:47:32;13.60;99.90
20182;DHT22;10250;50.756;6.172;2023-03-30T14:49:33;13.60;99.90
20182;DHT22;10250;50.756;6.172;2023-03-30T14:51:47;13.60;99.90
20182;DHT22;10250;50.756;6.172;2023-03-30T14:53:52;13.50;99.90
20182;DHT22;10250;50.756;6.172;2023-03-30T14:55:55;13.50;99.90
20182;DHT22;10250;50.756;6.172;2023-03-30T14:57:57;13.50;99.50
20182;DHT22;10250;50.756;6.172;2023-03-30T14:59:59;13.50;82.60
20182;DHT22;10250;50.756;6.172;2023-03-30T15:02:01;13.50;79.00
20182;DHT22;10250;50.756;6.172;2023-03-30T15:04:11;13.50;93.60
20182;DHT22;10250;50.756;6.172;2023-03-30T15:06:20;13.50;86.50
20182;DHT22;10250;50.756;6.172;2023-03-30T15:08:25;13.50;93.90
20182;DHT22;10250;50.756;6.172;2023-03-30T15:10:30;13.50;68.50
20182;DHT22;10250;50.756;6.172;2023-03-30T15:12:38;13.50;71.00
20182;DHT22;10250;50.756;6.172;2023-03-30T15:14:40;13.50;59.40
20182;DHT22;10250;50.756;6.172;2023-03-30T15:16:40;13.60;47.60
20182;DHT22;10250;50.756;6.172;2023-03-30T15:18:41;13.50;36.80
20182;DHT22;10250;50.756;6.172;2023-03-30T15:20:42;13.50;20.30
20182;DHT22;10250;50.756;6.172;2023-03-30T15:22:47;13.50;25.00
20182;DHT22;10250;50.756;6.172;2023-03-30T15:24:51;13.50;15.60
20182;DHT22;10250;50.756;6.172;2023-03-30T15:26:54;13.50;16.40
20182;DHT22;10250;50.756;6.172;2023-03-30T15:28:57;13.50;20.70
20182;DHT22;10250;50.756;6.172;2023-03-30T15:30:58;13.50;18.10
20182;DHT22;10250;50.756;6.172;2023-03-30T15:32:59;13.60;27.10
20182;DHT22;10250;50.756;6.172;2023-03-30T15:37:21;13.40;18.70
20182;DHT22;10250;50.756;6.172;2023-03-30T15:39:24;13.40;15.40
20182;DHT22;10250;50.756;6.172;2023-03-30T15:42:03;13.30;20.20